createdAt,value
2022-10-28T00:02:24.898Z,11.86
2022-10-28T00:04:51.605Z,11.86
2022-10-28T00:07:19.247Z,11.90
2022-10-28T00:09:45.930Z,11.97
2022-10-28T00:12:12.534Z,11.93
2022-10-28T00:14:39.241Z,11.96
2022-10-28T00:17:05.851Z,11.93
2022-10-28T00:19:32.531Z,11.85
2022-10-28T00:21:59.355Z,11.92
2022-10-28T00:24:26.174Z,11.87
2022-10-28T00:26:52.754Z,12.00
2022-10-28T00:29:20.412Z,11.93
2022-10-28T00:31:47.709Z,12.01
2022-10-28T00:34:15.889Z,11.97
2022-10-28T00:36:43.645Z,12.00
2022-10-28T00:39:13.045Z,12.04
2022-10-28T00:41:40.763Z,12.00
2022-10-28T00:44:26.244Z,11.92
2022-10-28T00:46:53.367Z,11.95
2022-10-28T00:49:30.204Z,11.89
2022-10-28T00:52:00.096Z,11.89
2022-10-28T00:54:27.230Z,11.90
2022-10-28T00:56:55.758Z,11.95
2022-10-28T00:59:31.793Z,11.98
2022-10-28T01:01:58.787Z,12.05
2022-10-28T01:04:25.520Z,12.05
2022-10-28T01:06:52.770Z,12.15
2022-10-28T01:09:20.329Z,12.12
2022-10-28T01:11:51.323Z,12.15
2022-10-28T01:14:20.862Z,12.19
2022-10-28T01:16:50.389Z,12.20
2022-10-28T01:19:16.884Z,12.22
2022-10-28T01:21:52.572Z,12.20
2022-10-28T01:24:26.815Z,12.19
2022-10-28T01:27:13.610Z,12.18
2022-10-28T01:30:00.638Z,12.22
2022-10-28T01:32:47.546Z,12.26
2022-10-28T01:35:18.936Z,12.20
2022-10-28T01:37:55.560Z,12.21
2022-10-28T01:40:48.721Z,12.12
2022-10-28T01:43:18.333Z,12.09
2022-10-28T01:45:52.109Z,12.13
2022-10-28T01:48:21.414Z,12.15
2022-10-28T01:50:47.935Z,12.22
2022-10-28T01:53:17.275Z,12.24
2022-10-28T01:55:46.370Z,12.25
2022-10-28T01:58:15.247Z,12.31
2022-10-28T02:00:43.211Z,12.36
2022-10-28T02:03:09.986Z,12.27
2022-10-28T02:05:41.221Z,12.26
2022-10-28T02:08:15.368Z,12.29
2022-10-28T02:10:46.575Z,12.28
2022-10-28T02:13:14.545Z,12.34
2022-10-28T02:15:48.014Z,12.33
2022-10-28T02:18:26.590Z,12.37
2022-10-28T02:20:59.777Z,12.41
2022-10-28T02:23:27.421Z,12.42
2022-10-28T02:26:00.818Z,12.45
2022-10-28T02:28:39.002Z,12.45
2022-10-28T02:31:25.184Z,12.47
2022-10-28T02:33:54.579Z,12.45
2022-10-28T02:36:22.870Z,12.42
2022-10-28T02:38:50.617Z,12.40
2022-10-28T02:41:25.869Z,12.38
2022-10-28T02:43:54.747Z,12.38
2022-10-28T02:46:21.587Z,12.39
2022-10-28T02:48:50.848Z,12.35
2022-10-28T02:51:20.154Z,12.38
2022-10-28T02:54:00.488Z,12.43
2022-10-28T02:56:28.073Z,12.44
2022-10-28T02:58:54.634Z,12.49
2022-10-28T03:01:22.223Z,12.45
2022-10-28T03:03:48.968Z,12.47
2022-10-28T03:06:15.633Z,12.44
2022-10-28T03:08:42.196Z,12.42
2022-10-28T03:11:08.718Z,12.43
2022-10-28T03:13:35.274Z,12.48
2022-10-28T03:16:01.832Z,12.52
2022-10-28T03:18:28.425Z,12.44
2022-10-28T03:20:58.063Z,12.40
2022-10-28T03:23:27.896Z,12.39
2022-10-28T03:25:54.522Z,12.40
2022-10-28T03:28:21.071Z,12.42
2022-10-28T03:30:47.661Z,12.46
2022-10-28T03:33:14.239Z,12.40
2022-10-28T03:35:43.088Z,12.32
2022-10-28T03:38:09.676Z,12.37
2022-10-28T03:40:36.284Z,12.41
2022-10-28T03:43:02.835Z,12.43
2022-10-28T03:48:00.848Z,12.48
2022-10-28T03:50:27.494Z,12.44
2022-10-28T03:52:54.096Z,12.43
2022-10-28T03:55:20.625Z,12.44
2022-10-28T03:57:47.151Z,12.42
2022-10-28T04:00:14.223Z,12.39
2022-10-28T04:02:41.219Z,12.41
2022-10-28T04:05:07.915Z,12.43
2022-10-28T04:07:34.915Z,12.35
2022-10-28T04:10:01.425Z,12.35
2022-10-28T04:12:29.811Z,12.37
2022-10-28T04:14:56.461Z,12.39
2022-10-28T04:17:23.131Z,12.39
2022-10-28T04:19:49.686Z,12.40
2022-10-28T04:22:16.224Z,12.42
2022-10-28T04:24:42.754Z,12.42
2022-10-28T04:27:09.463Z,12.43
2022-10-28T04:29:36.322Z,12.46
2022-10-28T04:32:02.901Z,12.38
2022-10-28T04:34:29.532Z,12.36
2022-10-28T04:36:56.058Z,12.38
2022-10-28T04:39:22.578Z,12.33
2022-10-28T04:41:49.188Z,12.34
2022-10-28T04:44:15.807Z,12.30
2022-10-28T04:46:42.325Z,12.25
2022-10-28T04:49:09.033Z,12.28
2022-10-28T04:51:35.628Z,12.36
2022-10-28T04:54:02.216Z,12.34
2022-10-28T04:56:31.052Z,12.40
2022-10-28T04:58:57.583Z,12.48
2022-10-28T05:01:24.290Z,12.38
2022-10-28T05:03:50.961Z,12.38
2022-10-28T05:06:17.520Z,12.37
2022-10-28T05:08:44.141Z,12.37
2022-10-28T05:11:10.638Z,12.38
2022-10-28T05:13:37.155Z,12.40
2022-10-28T05:16:03.862Z,12.40
2022-10-28T05:18:30.430Z,12.35
2022-10-28T05:20:56.986Z,12.37
2022-10-28T05:23:27.134Z,12.35
2022-10-28T05:27:34.848Z,12.31
2022-10-28T05:30:01.592Z,12.34
2022-10-28T05:32:29.793Z,12.35
2022-10-28T05:34:56.328Z,12.37
2022-10-28T05:37:22.849Z,12.39
2022-10-28T05:39:49.457Z,12.42
2022-10-28T05:42:16.017Z,12.44
2022-10-28T05:44:42.574Z,12.39
2022-10-28T05:47:09.093Z,12.41
2022-10-28T05:49:35.631Z,12.42
2022-10-28T05:52:02.471Z,12.43
2022-10-28T05:54:29.029Z,12.42
2022-10-28T05:56:55.588Z,12.39
2022-10-28T05:59:23.782Z,12.39
2022-10-28T06:01:50.420Z,12.42
2022-10-28T06:04:17.080Z,12.45
2022-10-28T06:06:43.878Z,12.44
2022-10-28T06:09:10.497Z,12.47
2022-10-28T06:11:37.160Z,12.44
2022-10-28T06:14:03.702Z,12.46
2022-10-28T06:16:30.450Z,12.47
2022-10-28T06:18:57.022Z,12.51
2022-10-28T06:21:23.605Z,12.46
2022-10-28T06:23:50.765Z,12.46
2022-10-28T06:26:17.443Z,12.46
2022-10-28T06:28:45.687Z,12.46
2022-10-28T06:31:12.277Z,12.47
2022-10-28T06:33:38.958Z,12.50
2022-10-28T06:36:05.868Z,12.52
2022-10-28T06:38:32.456Z,12.56
2022-10-28T06:40:59.007Z,12.51
2022-10-28T06:43:25.628Z,12.50
2022-10-28T06:45:55.416Z,12.45
2022-10-28T06:48:24.025Z,12.50
2022-10-28T06:50:50.663Z,12.45
2022-10-28T06:53:17.279Z,12.38
2022-10-28T06:55:48.832Z,12.38
2022-10-28T06:58:15.574Z,12.35
2022-10-28T07:00:42.143Z,12.39
2022-10-28T07:03:09.485Z,12.44
2022-10-28T07:05:36.260Z,12.47
2022-10-28T07:08:02.820Z,12.50
2022-10-28T07:10:29.312Z,12.58
2022-10-28T07:12:56.347Z,12.54
2022-10-28T07:15:23.476Z,12.55
2022-10-28T07:17:54.202Z,12.58
2022-10-28T07:20:21.265Z,12.62
2022-10-28T07:22:47.833Z,12.64
2022-10-28T07:25:14.458Z,12.71
2022-10-28T07:27:40.974Z,12.73
2022-10-28T07:30:07.915Z,12.74
2022-10-28T07:32:34.453Z,12.81
2022-10-28T07:35:01.097Z,12.85
2022-10-28T07:37:29.465Z,12.78
2022-10-28T07:39:56.065Z,12.77
2022-10-28T07:42:22.630Z,12.77
2022-10-28T07:44:49.308Z,12.81
2022-10-28T07:47:17.673Z,12.82
2022-10-28T07:49:44.257Z,12.88
2022-10-28T07:52:10.843Z,12.85
2022-10-28T07:54:37.390Z,12.86
2022-10-28T07:57:03.983Z,12.82
2022-10-28T07:59:30.535Z,12.76
2022-10-28T08:01:57.087Z,12.72
2022-10-28T08:04:23.672Z,12.72
2022-10-28T08:06:50.338Z,12.72
2022-10-28T08:09:16.947Z,12.68
2022-10-28T08:11:43.945Z,12.65
2022-10-28T08:14:10.540Z,12.72
2022-10-28T08:16:37.123Z,12.79
2022-10-28T08:19:07.462Z,12.82
2022-10-28T08:21:34.387Z,12.87
2022-10-28T08:24:00.958Z,12.91
2022-10-28T08:26:27.507Z,12.93
2022-10-28T08:28:54.183Z,12.97
2022-10-28T08:31:20.791Z,13.06
2022-10-28T08:33:47.521Z,13.10
2022-10-28T08:36:15.698Z,13.13
2022-10-28T08:38:45.525Z,13.20
2022-10-28T08:41:24.840Z,13.27
2022-10-28T08:44:10.203Z,13.33
2022-10-28T08:46:39.759Z,13.40
2022-10-28T08:49:10.307Z,13.45
2022-10-28T08:51:39.874Z,13.43
2022-10-28T08:54:11.805Z,13.44
2022-10-28T08:56:47.372Z,13.43
2022-10-28T08:59:18.373Z,13.44
2022-10-28T09:01:49.996Z,13.51
2022-10-28T09:04:22.455Z,13.61
2022-10-28T09:06:49.068Z,13.70
2022-10-28T09:09:20.270Z,13.78
2022-10-28T09:11:49.818Z,13.68
2022-10-28T09:14:16.479Z,13.77
2022-10-28T09:16:55.234Z,13.76
2022-10-28T09:19:31.016Z,13.71
2022-10-28T09:22:20.709Z,13.66
2022-10-28T09:24:51.534Z,13.69
2022-10-28T09:27:33.105Z,13.73
2022-10-28T09:30:10.797Z,13.66
2022-10-28T09:32:40.408Z,13.66
2022-10-28T09:35:12.724Z,13.68
2022-10-28T09:37:44.572Z,13.69
2022-10-28T09:40:14.398Z,13.73
2022-10-28T09:42:42.821Z,13.66
2022-10-28T09:45:13.885Z,13.61
2022-10-28T09:47:56.125Z,13.64
2022-10-28T09:50:24.135Z,13.68
2022-10-28T09:53:09.585Z,13.67
2022-10-28T09:55:36.142Z,13.68
2022-10-28T09:58:03.349Z,13.72
2022-10-28T10:00:29.940Z,13.77
2022-10-28T10:03:00.233Z,13.81
2022-10-28T10:05:27.991Z,13.80
2022-10-28T10:07:59.293Z,13.80
2022-10-28T10:10:25.961Z,13.73
2022-10-28T10:12:54.221Z,13.69
2022-10-28T10:15:31.991Z,13.68
2022-10-28T10:18:00.267Z,13.66
2022-10-28T10:20:27.059Z,13.67
2022-10-28T10:22:53.801Z,13.66
2022-10-28T10:25:20.585Z,13.68
2022-10-28T10:27:59.103Z,13.68
2022-10-28T10:30:28.973Z,13.76
2022-10-28T10:32:56.088Z,13.78
2022-10-28T10:35:28.249Z,13.72
2022-10-28T10:37:57.014Z,13.61
2022-10-28T10:40:23.965Z,13.60
2022-10-28T10:43:09.468Z,13.63
2022-10-28T10:45:37.547Z,13.73
2022-10-28T10:48:14.647Z,13.79
2022-10-28T10:50:42.771Z,13.83
2022-10-28T10:53:17.289Z,13.83
2022-10-28T10:55:48.778Z,13.81
2022-10-28T10:58:20.465Z,13.87
2022-10-28T11:00:55.390Z,13.98
2022-10-28T11:03:42.172Z,13.89
2022-10-28T11:06:23.500Z,13.92
2022-10-28T11:08:58.556Z,13.98
2022-10-28T11:11:32.824Z,13.95
2022-10-28T11:14:22.789Z,13.91
2022-10-28T11:16:56.807Z,13.79
2022-10-28T11:19:33.729Z,13.85
2022-10-28T11:22:18.293Z,13.80
2022-10-28T11:24:50.579Z,13.79
2022-10-28T11:27:19.947Z,13.83
2022-10-28T11:29:46.875Z,13.83
2022-10-28T11:32:19.590Z,13.91
2022-10-28T11:35:09.809Z,13.84
2022-10-28T11:37:48.780Z,13.82
2022-10-28T11:40:21.471Z,13.84
2022-10-28T11:43:03.517Z,13.90
2022-10-28T11:45:30.044Z,13.97
2022-10-28T11:48:15.043Z,14.08
2022-10-28T11:50:46.153Z,14.13
2022-10-28T11:53:21.820Z,14.26
2022-10-28T11:55:53.899Z,14.21
2022-10-28T11:58:31.384Z,14.23
2022-10-28T12:00:58.051Z,14.16
2022-10-28T12:03:33.539Z,14.11
2022-10-28T12:06:20.354Z,14.10
2022-10-28T12:08:53.218Z,14.12
2022-10-28T12:11:32.523Z,14.08
2022-10-28T12:14:07.052Z,14.02
2022-10-28T12:16:41.028Z,13.96
2022-10-28T12:19:14.289Z,13.91
2022-10-28T12:21:44.019Z,13.87
2022-10-28T12:24:20.181Z,13.87
2022-10-28T12:26:50.409Z,13.89
2022-10-28T12:29:37.277Z,13.84
2022-10-28T12:32:09.428Z,13.85
2022-10-28T12:34:39.361Z,13.84
2022-10-28T12:37:11.471Z,13.84
2022-10-28T12:39:45.355Z,13.90
2022-10-28T12:42:28.988Z,13.93
2022-10-28T12:44:57.268Z,14.00
2022-10-28T12:47:26.821Z,14.00
2022-10-28T12:50:02.766Z,14.00
2022-10-28T12:52:30.225Z,13.98
2022-10-28T12:55:03.215Z,13.96
2022-10-28T12:57:30.870Z,13.94
2022-10-28T13:00:17.732Z,14.00
2022-10-28T13:02:50.931Z,13.99
2022-10-28T13:05:29.302Z,14.02
2022-10-28T13:07:58.537Z,14.01
2022-10-28T13:10:40.080Z,13.99
2022-10-28T13:13:18.108Z,14.02
2022-10-28T13:16:03.720Z,14.01
2022-10-28T13:18:39.485Z,13.94
2022-10-28T13:21:06.281Z,13.96
2022-10-28T13:23:46.122Z,13.95
2022-10-28T13:26:21.667Z,13.94
2022-10-28T13:28:49.502Z,13.93
2022-10-28T13:31:16.466Z,13.97
2022-10-28T13:33:52.194Z,13.91
2022-10-28T13:36:24.941Z,13.93
2022-10-28T13:38:56.499Z,13.96
2022-10-28T13:41:44.684Z,13.96
2022-10-28T13:44:22.788Z,13.98
2022-10-28T13:47:08.120Z,14.00
2022-10-28T13:49:35.575Z,14.00
2022-10-28T13:52:08.283Z,13.97
2022-10-28T13:54:43.940Z,13.92
2022-10-28T13:57:15.845Z,13.86
2022-10-28T13:59:50.967Z,13.88
2022-10-28T14:02:34.443Z,13.80
2022-10-28T14:05:04.440Z,13.78
2022-10-28T14:07:32.299Z,13.79
2022-10-28T14:10:11.781Z,13.82
2022-10-28T14:12:47.317Z,13.82
2022-10-28T14:15:13.943Z,13.83
2022-10-28T14:17:41.686Z,13.77
2022-10-28T14:20:21.374Z,13.73
2022-10-28T14:22:48.164Z,13.71
2022-10-28T14:25:33.545Z,13.73
2022-10-28T14:28:00.102Z,13.77
2022-10-28T14:30:26.791Z,13.77
2022-10-28T14:32:58.126Z,13.80
2022-10-28T14:35:39.189Z,13.83
2022-10-28T14:38:08.706Z,13.77
2022-10-28T14:40:36.163Z,13.80
2022-10-28T14:43:19.209Z,13.87
2022-10-28T14:45:52.065Z,13.91
2022-10-28T14:48:27.733Z,13.95
2022-10-28T14:50:56.052Z,13.94
2022-10-28T14:53:27.970Z,13.96
2022-10-28T14:56:00.166Z,13.98
2022-10-28T14:58:28.903Z,13.99
2022-10-28T15:01:01.697Z,13.98
2022-10-28T15:03:28.906Z,13.94
2022-10-28T15:05:56.354Z,13.90
2022-10-28T15:08:25.162Z,13.91
2022-10-28T15:10:51.861Z,13.95
2022-10-28T15:13:20.306Z,13.92
2022-10-28T15:15:54.086Z,13.87
2022-10-28T15:18:22.453Z,13.88
2022-10-28T15:20:50.106Z,13.83
2022-10-28T15:23:18.464Z,13.83
2022-10-28T15:25:45.168Z,13.85
2022-10-28T15:28:12.812Z,13.88
2022-10-28T15:30:45.775Z,13.87
2022-10-28T15:33:31.302Z,13.84
2022-10-28T15:36:17.800Z,13.86
2022-10-28T15:38:44.960Z,13.89
2022-10-28T15:41:34.603Z,13.90
2022-10-28T15:44:01.889Z,13.92
2022-10-28T15:46:28.977Z,13.89
2022-10-28T15:48:59.554Z,13.87
2022-10-28T15:51:26.528Z,13.81
2022-10-28T15:53:56.558Z,13.79
2022-10-28T15:56:24.242Z,13.77
2022-10-28T15:59:14.155Z,13.75
2022-10-28T16:01:41.045Z,13.73
2022-10-28T16:04:23.143Z,13.71
2022-10-28T16:06:51.291Z,13.69
2022-10-28T16:09:28.068Z,13.68
2022-10-28T16:11:57.510Z,13.70
2022-10-28T16:14:43.037Z,13.74
2022-10-28T16:17:16.025Z,13.75
2022-10-28T16:19:44.978Z,13.79
2022-10-28T16:22:12.740Z,13.75
2022-10-28T16:24:41.179Z,13.73
2022-10-28T16:27:21.115Z,13.77
2022-10-28T16:29:48.114Z,13.80
2022-10-28T16:32:15.975Z,13.78
2022-10-28T16:34:42.869Z,13.79
2022-10-28T16:37:20.327Z,13.80
2022-10-28T16:39:47.115Z,13.83
2022-10-28T16:42:14.154Z,13.75
2022-10-28T16:44:40.702Z,13.70
2022-10-28T16:47:17.605Z,13.65
2022-10-28T16:49:44.233Z,13.69
2022-10-28T16:52:15.608Z,13.73
2022-10-28T16:54:42.300Z,13.74
2022-10-28T16:57:08.956Z,13.75
2022-10-28T16:59:37.374Z,13.69
2022-10-28T17:02:04.962Z,13.67
2022-10-28T17:04:31.926Z,13.66
2022-10-28T17:06:58.650Z,13.63
2022-10-28T17:09:25.260Z,13.61
2022-10-28T17:11:51.791Z,13.64
2022-10-28T17:14:18.326Z,13.62
2022-10-28T17:16:44.976Z,13.68
2022-10-28T17:19:11.652Z,13.60
2022-10-28T17:21:38.211Z,13.60
2022-10-28T17:24:04.937Z,13.65
2022-10-28T17:26:31.480Z,13.65
2022-10-28T17:28:58.078Z,13.67
2022-10-28T17:31:25.763Z,13.62
2022-10-28T17:33:53.046Z,13.58
2022-10-28T17:36:19.554Z,13.54
2022-10-28T17:38:48.735Z,13.59
2022-10-28T17:41:15.339Z,13.61
2022-10-28T17:43:42.446Z,13.64
2022-10-28T17:46:09.851Z,13.64
2022-10-28T17:48:36.606Z,13.65
2022-10-28T17:51:03.305Z,13.69
2022-10-28T17:53:29.945Z,13.69
2022-10-28T17:56:00.590Z,13.74
2022-10-28T17:58:27.669Z,13.76
2022-10-28T18:01:01.383Z,13.67
2022-10-28T18:03:29.986Z,13.65
2022-10-28T18:06:01.929Z,13.62
2022-10-28T18:08:32.109Z,13.65
2022-10-28T18:11:00.206Z,13.59
2022-10-28T18:13:28.039Z,13.60
2022-10-28T18:15:54.684Z,13.66
2022-10-28T18:18:21.244Z,13.67
2022-10-28T18:20:57.114Z,13.65
2022-10-28T18:23:24.110Z,13.61
2022-10-28T18:26:01.097Z,13.56
2022-10-28T18:28:32.816Z,13.58
2022-10-28T18:31:07.291Z,13.55
2022-10-28T18:33:34.166Z,13.54
2022-10-28T18:36:01.113Z,13.58
2022-10-28T18:38:27.815Z,13.59
2022-10-28T18:40:54.633Z,13.61
2022-10-28T18:43:23.024Z,13.60
2022-10-28T18:45:50.530Z,13.60
2022-10-28T18:48:17.496Z,13.58
2022-10-28T18:50:46.965Z,13.59
2022-10-28T18:53:15.848Z,13.60
2022-10-28T18:55:42.364Z,13.51
2022-10-28T18:58:11.704Z,13.50
2022-10-28T19:00:40.157Z,13.49
2022-10-28T19:03:06.764Z,13.49
2022-10-28T19:05:33.322Z,13.49
2022-10-28T19:08:00.249Z,13.54
2022-10-28T19:10:26.898Z,13.45
2022-10-28T19:12:53.485Z,13.42
2022-10-28T19:15:20.015Z,13.42
2022-10-28T19:17:46.571Z,13.37
2022-10-28T19:20:13.151Z,13.34
2022-10-28T19:22:39.874Z,13.32
2022-10-28T19:25:06.639Z,13.31
2022-10-28T19:27:33.868Z,13.29
2022-10-28T19:30:06.457Z,13.32
2022-10-28T19:32:37.781Z,13.40
2022-10-28T19:35:04.559Z,13.46
2022-10-28T19:37:31.135Z,13.47
2022-10-28T19:39:58.953Z,13.47
2022-10-28T19:42:25.752Z,13.51
2022-10-28T19:44:52.300Z,13.51
2022-10-28T19:47:18.800Z,13.51
2022-10-28T19:49:46.841Z,13.47
2022-10-28T19:52:13.386Z,13.50
2022-10-28T19:54:39.898Z,13.50
2022-10-28T19:57:06.541Z,13.49
2022-10-28T19:59:33.115Z,13.48
2022-10-28T20:01:59.817Z,13.51
2022-10-28T20:04:26.985Z,13.52
2022-10-28T20:06:53.580Z,13.47
2022-10-28T20:09:22.910Z,13.46
2022-10-28T20:11:53.057Z,13.54
2022-10-28T20:14:19.724Z,13.57
2022-10-28T20:16:48.621Z,13.56
2022-10-28T20:19:15.289Z,13.52
2022-10-28T20:21:41.888Z,13.55
2022-10-28T20:24:08.719Z,13.50
2022-10-28T20:26:36.274Z,13.48
2022-10-28T20:29:14.633Z,13.49
2022-10-28T20:31:42.515Z,13.47
2022-10-28T20:34:09.293Z,13.47
2022-10-28T20:36:40.059Z,13.50
2022-10-28T20:39:10.771Z,13.53
2022-10-28T20:41:40.095Z,13.58
2022-10-28T20:44:06.895Z,13.62
2022-10-28T20:46:33.946Z,13.65
2022-10-28T20:49:00.993Z,13.65
2022-10-28T20:51:28.664Z,13.67
2022-10-28T20:53:55.447Z,13.70
2022-10-28T20:56:24.175Z,13.68
2022-10-28T20:58:50.881Z,13.64
2022-10-28T21:01:18.933Z,13.61
2022-10-28T21:03:45.979Z,13.65
2022-10-28T21:08:45.223Z,13.53
2022-10-28T21:11:12.950Z,13.51
2022-10-28T21:13:40.369Z,13.46
2022-10-28T21:16:08.052Z,13.46
2022-10-28T21:18:35.628Z,13.49
2022-10-28T21:21:02.384Z,13.52
2022-10-28T21:23:29.410Z,13.53
2022-10-28T21:25:56.689Z,13.54
2022-10-28T21:28:23.516Z,13.54
2022-10-28T21:30:50.107Z,13.55
2022-10-28T21:33:19.386Z,13.49
2022-10-28T21:35:54.222Z,13.48
2022-10-28T21:38:20.761Z,13.44
2022-10-28T21:40:47.487Z,13.42
2022-10-28T21:43:14.205Z,13.33
2022-10-28T21:45:40.727Z,13.36
2022-10-28T21:48:07.291Z,13.43
2022-10-28T21:50:33.973Z,13.50
2022-10-28T21:53:04.191Z,13.54
2022-10-28T21:55:46.187Z,13.54
2022-10-28T21:58:13.722Z,13.59
2022-10-28T22:00:40.730Z,13.57
2022-10-28T22:03:07.532Z,13.58
2022-10-28T22:05:34.280Z,13.65
2022-10-28T22:08:03.168Z,13.66
2022-10-28T22:10:31.694Z,13.66
2022-10-28T22:12:59.299Z,13.62
2022-10-28T22:15:25.997Z,13.62
2022-10-28T22:17:52.759Z,13.57
2022-10-28T22:20:19.536Z,13.58
2022-10-28T22:22:46.199Z,13.59
2022-10-28T22:25:12.760Z,13.60
2022-10-28T22:27:39.269Z,13.62
2022-10-28T22:30:06.138Z,13.62
2022-10-28T22:32:32.755Z,13.60
2022-10-28T22:34:59.308Z,13.59
2022-10-28T22:37:25.901Z,13.60
2022-10-28T22:39:52.501Z,13.63
2022-10-28T22:42:19.073Z,13.69
2022-10-28T22:44:45.614Z,13.74
2022-10-28T22:47:12.100Z,13.79
2022-10-28T22:49:38.615Z,13.83
2022-10-28T22:52:05.264Z,13.82
2022-10-28T22:54:31.892Z,13.81
2022-10-28T22:56:58.643Z,13.79
2022-10-28T22:59:25.567Z,13.81
2022-10-28T23:01:52.199Z,13.80
2022-10-28T23:04:18.828Z,13.80
2022-10-28T23:06:45.448Z,13.81
2022-10-28T23:09:12.004Z,13.87
2022-10-28T23:11:38.545Z,13.85
2022-10-28T23:14:05.177Z,13.82
2022-10-28T23:16:31.780Z,13.80
2022-10-28T23:19:00.601Z,13.77
2022-10-28T23:21:27.356Z,13.76
2022-10-28T23:23:55.331Z,13.73
2022-10-28T23:26:22.235Z,13.64
2022-10-28T23:28:56.099Z,13.59
2022-10-28T23:31:23.019Z,13.58
2022-10-28T23:33:50.909Z,13.57
2022-10-28T23:36:17.637Z,13.55
2022-10-28T23:38:44.411Z,13.57
2022-10-28T23:41:12.473Z,13.61
2022-10-28T23:43:39.290Z,13.65
2022-10-28T23:46:05.914Z,13.62
2022-10-28T23:48:32.585Z,13.61
2022-10-28T23:50:59.304Z,13.60
2022-10-28T23:53:26.336Z,13.60
2022-10-28T23:55:53.262Z,13.61
2022-10-28T23:58:20.790Z,13.59
